Terminal Aerodrome Forecast
Issued by NWS Sterling, VA

Home | Current Version | Previous Version | Text Only | Print | Product List | Glossary On
Versions: 1 2 3 4 5 6 7 8 9 10 11 12 13 14 15 16 17 18 19 20 21 22 23 24 25 26 27 28 29 30
000
FTUS41 KLWX 012333
TAFBWI
TAF
KBWI 012333Z 0200/0306 VRB04KT P6SM SCT200
     FM020900 34004KT 5SM BR BKN080
     FM021200 VRB04KT P6SM SCT050 BKN080 BKN200
     FM021800 14005KT P6SM BKN050 BKN120=

USA.gov is the U.S. government's official web portal to all federal, state and local government web resources and services.